Terminal Aerodrome Forecast
Issued by NWS

Home | Current Version | Previous Version | Text Only | Print | Product List | Glossary On
Versions: 1 2 3 4 5 6 7 8 9 10 11 12 13
000
FTUS45 KABQ 240500
TAFTCC
TAF
KTCC 240524Z 2406/2506 18010KT P6SM FEW150
     FM240800 22008KT P6SM FEW150
     FM241700 22012G21KT P6SM SKC
     FM250200 19010KT P6SM FEW110=

USA.gov is the U.S. government's official web portal to all federal, state and local government web resources and services.